createdAt,value
2022-09-15T09:55:25.125Z,17.42
2022-09-15T15:56:23.884Z,16.88
2022-09-15T15:58:49.967Z,16.64
2022-09-15T16:01:16.109Z,16.32
2022-09-15T16:03:42.274Z,16.06
2022-09-15T16:06:10.168Z,15.53
2022-09-15T16:08:39.893Z,14.73
2022-09-15T16:11:08.917Z,14.13
2022-09-15T16:13:35.389Z,13.86
2022-09-15T16:16:02.513Z,13.73
2022-09-15T16:18:29.498Z,13.66
2022-09-15T16:20:55.619Z,13.58
2022-09-15T16:23:23.174Z,13.55
2022-09-15T16:25:55.481Z,13.55
2022-09-15T16:28:21.790Z,13.57
2022-09-15T16:30:48.073Z,13.53
2022-09-15T16:33:16.520Z,13.56
2022-09-15T16:36:03.938Z,13.66
2022-09-15T16:38:30.183Z,13.75
2022-09-15T16:40:56.646Z,13.77
2022-09-15T16:43:22.773Z,13.80
2022-09-15T16:45:50.623Z,13.77
2022-09-15T16:48:17.295Z,13.75
2022-09-15T16:51:26.711Z,13.65
2022-09-15T16:53:31.101Z,13.51
2022-09-15T16:55:57.239Z,13.40
2022-09-15T16:58:23.804Z,13.30
2022-09-15T17:00:52.614Z,13.24
2022-09-15T17:03:24.016Z,13.14
2022-09-15T17:05:52.046Z,13.05
2022-09-15T17:08:20.648Z,12.93
2022-09-15T17:10:48.323Z,12.90
2022-09-15T17:13:17.540Z,12.86
2022-09-15T17:15:45.860Z,12.84
2022-09-15T17:18:16.530Z,12.74
2022-09-15T17:20:44.559Z,12.70
2022-09-15T17:23:37.087Z,12.70
2022-09-15T17:26:15.209Z,12.69
2022-09-15T17:28:42.341Z,12.70
2022-09-15T17:31:14.813Z,12.81
2022-09-15T17:33:41.447Z,12.83
2022-09-15T17:36:07.842Z,12.86
2022-09-15T17:38:33.962Z,12.92
2022-09-15T17:41:00.115Z,13.00
2022-09-15T17:43:28.693Z,13.00
2022-09-15T17:45:55.603Z,13.03
2022-09-15T17:48:22.631Z,13.14
2022-09-15T17:50:48.847Z,13.17
2022-09-15T17:53:23.549Z,13.17
2022-09-15T17:55:50.709Z,13.19
2022-09-15T17:58:17.348Z,13.22
2022-09-15T18:00:44.434Z,13.24
2022-09-15T18:03:34.819Z,13.26
2022-09-15T18:06:05.278Z,13.22
2022-09-15T18:08:32.980Z,13.16
2022-09-15T18:11:00.122Z,13.11
2022-09-15T18:13:27.998Z,13.03
2022-09-15T18:15:54.576Z,12.96
2022-09-15T18:18:23.975Z,13.02
2022-09-15T18:20:51.567Z,13.08
2022-09-15T18:23:20.286Z,13.07
2022-09-15T18:25:47.514Z,13.13
2022-09-15T18:28:15.207Z,13.20
2022-09-15T18:30:44.386Z,13.22
2022-09-15T18:33:16.365Z,13.26
2022-09-15T18:35:43.705Z,13.30
2022-09-15T18:38:10.318Z,13.31
2022-09-15T18:40:36.718Z,13.39
2022-09-15T18:43:02.987Z,13.43
2022-09-15T18:45:29.068Z,13.43
2022-09-15T18:47:55.147Z,13.38
2022-09-15T18:50:24.393Z,13.29
2022-09-15T18:52:50.595Z,13.25
2022-09-15T18:55:22.023Z,13.17
2022-09-15T18:57:49.163Z,13.07
2022-09-15T19:00:22.609Z,12.94
2022-09-15T19:02:48.870Z,12.83
2022-09-15T19:05:16.582Z,12.77
2022-09-15T19:07:43.579Z,12.75
2022-09-15T19:10:11.089Z,12.71
2022-09-15T19:12:37.736Z,12.70
2022-09-15T19:15:10.595Z,12.68
2022-09-15T19:17:38.013Z,12.65
2022-09-15T19:20:06.608Z,12.63
2022-09-15T19:22:33.351Z,12.65
2022-09-15T19:24:59.732Z,12.60
2022-09-15T19:27:25.891Z,12.68
2022-09-15T19:29:51.990Z,12.67
2022-09-15T19:32:18.723Z,12.66
2022-09-15T19:34:47.088Z,12.60
2022-09-15T19:37:18.660Z,12.60
2022-09-15T19:39:45.889Z,12.53
2022-09-15T19:42:12.514Z,12.51
2022-09-15T19:44:38.816Z,12.52
2022-09-15T19:47:05.012Z,12.40
2022-09-15T19:49:31.123Z,12.39
2022-09-15T19:51:57.211Z,12.37
2022-09-15T19:54:27.754Z,12.25
2022-09-15T19:56:54.204Z,12.25
2022-09-15T19:59:21.131Z,12.18
2022-09-15T20:01:47.611Z,12.18
2022-09-15T20:04:14.124Z,12.25
2022-09-15T20:06:40.469Z,12.22
2022-09-15T20:09:07.235Z,12.24
2022-09-15T20:11:34.508Z,12.27
2022-09-15T20:14:01.121Z,12.23
2022-09-15T20:16:28.757Z,12.17
2022-09-15T20:18:54.953Z,12.08
2022-09-15T20:21:49.129Z,12.05
2022-09-15T20:24:16.326Z,11.98
2022-09-15T20:26:42.411Z,11.92
2022-09-15T20:29:08.695Z,11.91
2022-09-15T20:31:34.948Z,11.84
2022-09-15T20:34:02.259Z,11.86
2022-09-15T20:36:33.422Z,11.82
2022-09-15T20:39:01.052Z,11.80
2022-09-15T20:41:28.921Z,11.78
2022-09-15T20:43:55.699Z,11.70
2022-09-15T20:46:23.245Z,11.73
2022-09-15T20:48:51.302Z,11.74
2022-09-15T20:51:20.655Z,11.72
2022-09-15T20:53:50.018Z,11.68
2022-09-15T20:56:17.701Z,11.70
2022-09-15T20:58:43.854Z,11.61
2022-09-15T21:01:15.667Z,11.61
2022-09-15T21:03:43.226Z,11.64
2022-09-15T21:06:15.138Z,11.61
2022-09-15T21:08:42.068Z,11.61
2022-09-15T21:11:10.837Z,11.69
2022-09-15T21:13:38.675Z,11.67
2022-09-15T21:16:08.259Z,11.68
2022-09-15T21:18:36.610Z,11.71
2022-09-15T21:21:05.836Z,11.64
2022-09-15T21:23:38.379Z,11.60
2022-09-15T21:26:07.276Z,11.55
2022-09-15T21:28:33.682Z,11.46
2022-09-15T21:31:10.942Z,11.49
2022-09-15T21:33:37.859Z,11.50
2022-09-15T21:36:11.243Z,11.50
2022-09-15T21:38:40.643Z,11.53
2022-09-15T21:41:09.702Z,11.49
2022-09-15T21:43:39.377Z,11.52
2022-09-15T21:46:19.044Z,11.62
2022-09-15T21:48:47.763Z,11.61
2022-09-15T21:51:19.697Z,11.57
2022-09-15T21:53:52.348Z,11.63
2022-09-15T21:56:18.595Z,11.58
2022-09-15T21:58:45.443Z,11.60
2022-09-15T22:01:26.518Z,11.67
2022-09-15T22:04:01.629Z,11.62
2022-09-15T22:06:35.898Z,11.63
2022-09-15T22:09:07.785Z,11.62
2022-09-15T22:11:34.512Z,11.59
2022-09-15T22:14:03.559Z,11.56
2022-09-15T22:16:29.966Z,11.56
2022-09-15T22:18:56.493Z,11.60
2022-09-15T22:21:24.913Z,11.59
2022-09-15T22:23:53.519Z,11.54
2022-09-15T22:26:21.917Z,11.44
2022-09-15T22:28:48.464Z,11.42
2022-09-15T22:31:16.404Z,11.37
2022-09-15T22:33:42.961Z,11.41
2022-09-15T22:36:21.522Z,11.41
2022-09-15T22:38:49.224Z,11.35
2022-09-15T22:41:17.524Z,11.27
2022-09-15T22:43:53.121Z,11.28
2022-09-15T22:46:19.815Z,11.34
2022-09-15T22:48:45.956Z,11.37
2022-09-15T22:51:12.780Z,11.43
2022-09-15T22:53:39.455Z,11.44
2022-09-15T22:56:20.878Z,11.39
2022-09-15T22:58:49.290Z,11.38
2022-09-15T23:01:21.059Z,11.36
2022-09-15T23:03:51.666Z,11.33
2022-09-15T23:06:17.817Z,11.32
2022-09-15T23:08:43.963Z,11.25
2022-09-15T23:11:14.204Z,11.23
2022-09-15T23:13:41.164Z,11.23
2022-09-15T23:16:08.152Z,11.16
2022-09-15T23:18:34.860Z,11.18
2022-09-15T23:21:09.417Z,11.11
2022-09-15T23:23:37.196Z,11.00
2022-09-15T23:26:04.755Z,10.97
2022-09-15T23:28:32.131Z,10.92
2022-09-15T23:30:59.447Z,10.96
2022-09-15T23:33:29.268Z,10.94
2022-09-15T23:35:55.446Z,10.99
2022-09-15T23:38:21.922Z,10.91
2022-09-15T23:40:50.042Z,10.96
2022-09-15T23:43:16.946Z,10.86
2022-09-15T23:45:43.664Z,10.90
2022-09-15T23:48:10.447Z,10.90
2022-09-15T23:50:37.568Z,10.87
2022-09-15T23:53:04.467Z,10.87
2022-09-15T23:55:30.550Z,10.85
2022-09-15T23:57:56.645Z,10.84
